sensor_id;sensor_type;location;lat;lon;timestamp;temperature;humidity
13354;DHT22;6746;50.892;4.064;2024-01-27T00:01:21;2.50;99.90
13354;DHT22;6746;50.892;4.064;2024-01-27T00:04:09;2.50;99.90
13354;DHT22;6746;50.892;4.064;2024-01-27T00:06:48;2.40;99.90
13354;DHT22;6746;50.892;4.064;2024-01-27T00:09:26;2.30;99.90
13354;DHT22;6746;50.892;4.064;2024-01-27T00:12:09;2.30;99.90
13354;DHT22;6746;50.892;4.064;2024-01-27T00:14:47;2.30;99.90
13354;DHT22;6746;50.892;4.064;2024-01-27T00:17:27;2.30;99.90
13354;DHT22;6746;50.892;4.064;2024-01-27T00:20:06;2.20;99.90
13354;DHT22;6746;50.892;4.064;2024-01-27T00:22:47;2.20;99.90
13354;DHT22;6746;50.892;4.064;2024-01-27T00:25:25;2.20;99.90
13354;DHT22;6746;50.892;4.064;2024-01-27T00:28:08;2.10;99.90
13354;DHT22;6746;50.892;4.064;2024-01-27T00:30:46;2.10;99.90
13354;DHT22;6746;50.892;4.064;2024-01-27T00:33:27;2.10;99.90
13354;DHT22;6746;50.892;4.064;2024-01-27T00:36:05;2.10;99.90
13354;DHT22;6746;50.892;4.064;2024-01-27T00:38:53;2.10;99.90
13354;DHT22;6746;50.892;4.064;2024-01-27T00:41:41;2.10;99.90
13354;DHT22;6746;50.892;4.064;2024-01-27T00:44:29;2.10;99.90
13354;DHT22;6746;50.892;4.064;2024-01-27T00:47:08;2.00;99.90
13354;DHT22;6746;50.892;4.064;2024-01-27T00:49:46;2.00;99.90
13354;DHT22;6746;50.892;4.064;2024-01-27T00:52:27;2.00;99.90
13354;DHT22;6746;50.892;4.064;2024-01-27T00:55:04;2.00;99.90
13354;DHT22;6746;50.892;4.064;2024-01-27T00:57:52;2.00;99.90
13354;DHT22;6746;50.892;4.064;2024-01-27T01:00:41;1.90;99.90
13354;DHT22;6746;50.892;4.064;2024-01-27T01:03:29;1.90;99.90
13354;DHT22;6746;50.892;4.064;2024-01-27T01:06:17;1.90;99.90
13354;DHT22;6746;50.892;4.064;2024-01-27T01:08:55;1.90;99.90
13354;DHT22;6746;50.892;4.064;2024-01-27T01:11:33;1.80;99.90
13354;DHT22;6746;50.892;4.064;2024-01-27T01:14:11;1.90;99.90
13354;DHT22;6746;50.892;4.064;2024-01-27T01:16:50;1.80;99.90
13354;DHT22;6746;50.892;4.064;2024-01-27T01:19:31;1.80;99.90
13354;DHT22;6746;50.892;4.064;2024-01-27T01:24:57;1.70;99.90
13354;DHT22;6746;50.892;4.064;2024-01-27T01:27:38;1.70;99.90
13354;DHT22;6746;50.892;4.064;2024-01-27T01:30:17;1.60;99.90
13354;DHT22;6746;50.892;4.064;2024-01-27T01:32:59;1.50;99.90
13354;DHT22;6746;50.892;4.064;2024-01-27T01:35:37;1.50;99.90
13354;DHT22;6746;50.892;4.064;2024-01-27T01:38:18;1.50;99.90
13354;DHT22;6746;50.892;4.064;2024-01-27T01:40:56;1.60;99.90
13354;DHT22;6746;50.892;4.064;2024-01-27T01:43:44;1.50;99.90
13354;DHT22;6746;50.892;4.064;2024-01-27T01:46:23;1.50;99.90
13354;DHT22;6746;50.892;4.064;2024-01-27T01:49:03;1.40;99.90
13354;DHT22;6746;50.892;4.064;2024-01-27T01:51:44;1.50;99.90
13354;DHT22;6746;50.892;4.064;2024-01-27T01:54:22;1.60;99.90
13354;DHT22;6746;50.892;4.064;2024-01-27T01:57:05;1.60;99.90
13354;DHT22;6746;50.892;4.064;2024-01-27T01:59:43;1.60;99.90
13354;DHT22;6746;50.892;4.064;2024-01-27T02:02:31;1.50;99.90
13354;DHT22;6746;50.892;4.064;2024-01-27T02:05:12;1.50;99.90
13354;DHT22;6746;50.892;4.064;2024-01-27T02:07:50;1.50;99.90
13354;DHT22;6746;50.892;4.064;2024-01-27T02:10:28;1.50;99.90
13354;DHT22;6746;50.892;4.064;2024-01-27T02:13:22;1.50;99.90
13354;DHT22;6746;50.892;4.064;2024-01-27T02:16:06;1.50;99.90
13354;DHT22;6746;50.892;4.064;2024-01-27T02:18:55;3.50;99.90
13354;DHT22;6746;50.892;4.064;2024-01-27T02:21:38;1.40;99.90
13354;DHT22;6746;50.892;4.064;2024-01-27T02:24:17;1.40;99.90
13354;DHT22;6746;50.892;4.064;2024-01-27T02:27:04;1.40;99.90
13354;DHT22;6746;50.892;4.064;2024-01-27T02:29:43;1.40;99.90
13354;DHT22;6746;50.892;4.064;2024-01-27T02:32:21;1.30;99.90
13354;DHT22;6746;50.892;4.064;2024-01-27T02:35:02;1.20;99.90
13354;DHT22;6746;50.892;4.064;2024-01-27T02:37:40;1.20;99.90
13354;DHT22;6746;50.892;4.064;2024-01-27T02:40:28;1.20;99.90
13354;DHT22;6746;50.892;4.064;2024-01-27T02:43:06;1.20;99.90
13354;DHT22;6746;50.892;4.064;2024-01-27T02:45:45;1.30;99.90
13354;DHT22;6746;50.892;4.064;2024-01-27T02:48:25;1.30;99.90
13354;DHT22;6746;50.892;4.064;2024-01-27T02:51:03;1.20;99.90
13354;DHT22;6746;50.892;4.064;2024-01-27T02:53:42;1.10;99.90
13354;DHT22;6746;50.892;4.064;2024-01-27T02:56:20;1.10;99.90
13354;DHT22;6746;50.892;4.064;2024-01-27T02:59:01;1.10;99.90
13354;DHT22;6746;50.892;4.064;2024-01-27T03:01:39;1.20;99.90
13354;DHT22;6746;50.892;4.064;2024-01-27T03:04:27;1.30;99.90
13354;DHT22;6746;50.892;4.064;2024-01-27T03:07:05;1.20;99.90
13354;DHT22;6746;50.892;4.064;2024-01-27T03:09:43;1.10;99.90
13354;DHT22;6746;50.892;4.064;2024-01-27T03:12:21;1.00;99.90
13354;DHT22;6746;50.892;4.064;2024-01-27T03:15:00;1.00;99.90
13354;DHT22;6746;50.892;4.064;2024-01-27T03:17:43;1.00;99.90
13354;DHT22;6746;50.892;4.064;2024-01-27T03:20:21;1.00;99.90
13354;DHT22;6746;50.892;4.064;2024-01-27T03:22:59;1.00;99.90
13354;DHT22;6746;50.892;4.064;2024-01-27T03:25:37;0.90;99.90
13354;DHT22;6746;50.892;4.064;2024-01-27T03:28:18;0.90;99.90
13354;DHT22;6746;50.892;4.064;2024-01-27T03:30:56;0.90;99.90
13354;DHT22;6746;50.892;4.064;2024-01-27T03:33:34;0.90;99.90
13354;DHT22;6746;50.892;4.064;2024-01-27T03:36:12;0.90;99.90
13354;DHT22;6746;50.892;4.064;2024-01-27T03:38:54;0.90;99.90
13354;DHT22;6746;50.892;4.064;2024-01-27T03:41:31;0.90;99.90
13354;DHT22;6746;50.892;4.064;2024-01-27T03:44:09;0.90;99.90
13354;DHT22;6746;50.892;4.064;2024-01-27T03:46:47;0.90;99.90
13354;DHT22;6746;50.892;4.064;2024-01-27T03:49:35;0.90;99.90
13354;DHT22;6746;50.892;4.064;2024-01-27T03:52:16;1.00;99.90
13354;DHT22;6746;50.892;4.064;2024-01-27T03:54:54;0.90;99.90
13354;DHT22;6746;50.892;4.064;2024-01-27T03:57:32;1.00;99.90
13354;DHT22;6746;50.892;4.064;2024-01-27T04:00:10;1.10;99.90
13354;DHT22;6746;50.892;4.064;2024-01-27T04:02:51;1.10;99.90
13354;DHT22;6746;50.892;4.064;2024-01-27T04:05:30;1.10;99.90
13354;DHT22;6746;50.892;4.064;2024-01-27T04:08:08;1.00;99.90
13354;DHT22;6746;50.892;4.064;2024-01-27T04:10:46;1.00;99.90
13354;DHT22;6746;50.892;4.064;2024-01-27T04:13:27;1.00;99.90
13354;DHT22;6746;50.892;4.064;2024-01-27T04:16:05;1.00;99.90
13354;DHT22;6746;50.892;4.064;2024-01-27T04:18:44;1.00;99.90
13354;DHT22;6746;50.892;4.064;2024-01-27T04:21:22;0.90;99.90
13354;DHT22;6746;50.892;4.064;2024-01-27T04:24:03;0.80;99.90
13354;DHT22;6746;50.892;4.064;2024-01-27T04:26:41;0.90;99.90
13354;DHT22;6746;50.892;4.064;2024-01-27T04:29:29;0.80;99.90
13354;DHT22;6746;50.892;4.064;2024-01-27T04:32:17;0.70;99.90
13354;DHT22;6746;50.892;4.064;2024-01-27T04:35:08;0.70;99.90
13354;DHT22;6746;50.892;4.064;2024-01-27T04:37:56;0.70;99.90
13354;DHT22;6746;50.892;4.064;2024-01-27T04:40:44;0.60;99.90
13354;DHT22;6746;50.892;4.064;2024-01-27T04:43:32;0.60;99.90
13354;DHT22;6746;50.892;4.064;2024-01-27T04:46:20;0.60;99.90
13354;DHT22;6746;50.892;4.064;2024-01-27T04:49:08;0.60;99.90
13354;DHT22;6746;50.892;4.064;2024-01-27T04:51:56;0.60;99.90
13354;DHT22;6746;50.892;4.064;2024-01-27T04:54:35;0.60;99.90
13354;DHT22;6746;50.892;4.064;2024-01-27T04:57:13;0.60;99.90
13354;DHT22;6746;50.892;4.064;2024-01-27T04:59:51;0.50;99.90
13354;DHT22;6746;50.892;4.064;2024-01-27T05:02:29;0.50;99.90
13354;DHT22;6746;50.892;4.064;2024-01-27T05:05:17;0.40;99.90
13354;DHT22;6746;50.892;4.064;2024-01-27T05:07:55;0.50;99.90
13354;DHT22;6746;50.892;4.064;2024-01-27T05:10:34;0.60;99.90
13354;DHT22;6746;50.892;4.064;2024-01-27T05:13:14;0.70;99.90
13354;DHT22;6746;50.892;4.064;2024-01-27T05:15:52;0.60;99.90
13354;DHT22;6746;50.892;4.064;2024-01-27T05:18:40;0.60;99.90
13354;DHT22;6746;50.892;4.064;2024-01-27T05:21:28;0.70;99.90
13354;DHT22;6746;50.892;4.064;2024-01-27T05:24:17;0.70;99.90
13354;DHT22;6746;50.892;4.064;2024-01-27T05:27:05;0.70;99.90
13354;DHT22;6746;50.892;4.064;2024-01-27T05:29:43;0.60;99.90
13354;DHT22;6746;50.892;4.064;2024-01-27T05:32:21;0.50;99.90
13354;DHT22;6746;50.892;4.064;2024-01-27T05:35:02;0.50;99.90
13354;DHT22;6746;50.892;4.064;2024-01-27T05:37:40;0.50;99.90
13354;DHT22;6746;50.892;4.064;2024-01-27T05:40:18;0.50;99.90
13354;DHT22;6746;50.892;4.064;2024-01-27T05:42:56;0.50;99.90
13354;DHT22;6746;50.892;4.064;2024-01-27T05:45:34;0.40;99.90
13354;DHT22;6746;50.892;4.064;2024-01-27T05:48:13;0.40;99.90
13354;DHT22;6746;50.892;4.064;2024-01-27T05:50:56;0.50;99.90
13354;DHT22;6746;50.892;4.064;2024-01-27T05:53:34;0.60;99.90
13354;DHT22;6746;50.892;4.064;2024-01-27T05:56:15;0.70;99.90
13354;DHT22;6746;50.892;4.064;2024-01-27T05:58:52;0.70;99.90
13354;DHT22;6746;50.892;4.064;2024-01-27T06:01:31;0.70;99.90
13354;DHT22;6746;50.892;4.064;2024-01-27T06:04:10;0.70;99.90
13354;DHT22;6746;50.892;4.064;2024-01-27T06:06:50;0.60;99.90
13354;DHT22;6746;50.892;4.064;2024-01-27T06:09:28;0.60;99.90
13354;DHT22;6746;50.892;4.064;2024-01-27T06:12:06;0.50;99.90
13354;DHT22;6746;50.892;4.064;2024-01-27T06:14:44;0.50;99.90
13354;DHT22;6746;50.892;4.064;2024-01-27T06:17:32;0.60;99.90
13354;DHT22;6746;50.892;4.064;2024-01-27T06:20:18;0.50;99.90
13354;DHT22;6746;50.892;4.064;2024-01-27T06:22:57;0.50;99.90
13354;DHT22;6746;50.892;4.064;2024-01-27T06:25:45;0.40;99.90
13354;DHT22;6746;50.892;4.064;2024-01-27T06:28:25;0.30;99.90
13354;DHT22;6746;50.892;4.064;2024-01-27T06:31:03;0.30;99.90
13354;DHT22;6746;50.892;4.064;2024-01-27T06:33:49;0.30;99.90
13354;DHT22;6746;50.892;4.064;2024-01-27T06:36:27;0.40;99.90
13354;DHT22;6746;50.892;4.064;2024-01-27T06:39:15;0.40;99.90
13354;DHT22;6746;50.892;4.064;2024-01-27T06:41:56;0.40;99.90
13354;DHT22;6746;50.892;4.064;2024-01-27T06:44:34;0.40;99.90
13354;DHT22;6746;50.892;4.064;2024-01-27T06:47:17;0.30;99.90
13354;DHT22;6746;50.892;4.064;2024-01-27T06:49:55;0.30;99.90
13354;DHT22;6746;50.892;4.064;2024-01-27T06:52:36;0.40;99.90
13354;DHT22;6746;50.892;4.064;2024-01-27T06:55:14;0.40;99.90
13354;DHT22;6746;50.892;4.064;2024-01-27T06:58:02;0.50;99.90
13354;DHT22;6746;50.892;4.064;2024-01-27T07:00:43;0.50;99.90
13354;DHT22;6746;50.892;4.064;2024-01-27T07:03:21;0.60;99.90
13354;DHT22;6746;50.892;4.064;2024-01-27T07:06:02;0.70;99.90
13354;DHT22;6746;50.892;4.064;2024-01-27T07:08:40;0.60;99.90
13354;DHT22;6746;50.892;4.064;2024-01-27T07:11:27;0.50;99.90
13354;DHT22;6746;50.892;4.064;2024-01-27T07:14:15;0.50;99.90
13354;DHT22;6746;50.892;4.064;2024-01-27T07:16:43;0.50;99.90
13354;DHT22;6746;50.892;4.064;2024-01-27T07:19:12;0.60;99.90
13354;DHT22;6746;50.892;4.064;2024-01-27T07:21:51;0.70;99.90
13354;DHT22;6746;50.892;4.064;2024-01-27T07:24:29;0.80;99.90
13354;DHT22;6746;50.892;4.064;2024-01-27T07:27:07;0.80;99.90
13354;DHT22;6746;50.892;4.064;2024-01-27T07:29:45;0.80;99.90
13354;DHT22;6746;50.892;4.064;2024-01-27T07:32:18;0.90;99.90
13354;DHT22;6746;50.892;4.064;2024-01-27T07:34:46;0.90;99.90
13354;DHT22;6746;50.892;4.064;2024-01-27T07:37:20;0.90;99.90
13354;DHT22;6746;50.892;4.064;2024-01-27T07:39:49;0.90;99.90
13354;DHT22;6746;50.892;4.064;2024-01-27T07:42:28;0.90;99.90
13354;DHT22;6746;50.892;4.064;2024-01-27T07:45:06;0.90;99.90
13354;DHT22;6746;50.892;4.064;2024-01-27T07:47:44;1.00;99.90
13354;DHT22;6746;50.892;4.064;2024-01-27T07:50:22;1.10;99.90
13354;DHT22;6746;50.892;4.064;2024-01-27T07:53:00;1.00;99.90
13354;DHT22;6746;50.892;4.064;2024-01-27T07:55:38;1.00;99.90
13354;DHT22;6746;50.892;4.064;2024-01-27T07:58:07;1.10;99.90
13354;DHT22;6746;50.892;4.064;2024-01-27T08:00:43;1.10;99.90
13354;DHT22;6746;50.892;4.064;2024-01-27T08:03:12;1.10;99.90
13354;DHT22;6746;50.892;4.064;2024-01-27T08:05:41;1.20;99.90
13354;DHT22;6746;50.892;4.064;2024-01-27T08:08:09;1.20;99.90
13354;DHT22;6746;50.892;4.064;2024-01-27T08:10:41;1.20;99.90
13354;DHT22;6746;50.892;4.064;2024-01-27T08:13:10;1.20;99.90
13354;DHT22;6746;50.892;4.064;2024-01-27T08:15:48;1.30;99.90
13354;DHT22;6746;50.892;4.064;2024-01-27T08:18:36;1.30;99.90
13354;DHT22;6746;50.892;4.064;2024-01-27T08:21:15;1.40;99.90
13354;DHT22;6746;50.892;4.064;2024-01-27T08:23:43;1.50;99.90
13354;DHT22;6746;50.892;4.064;2024-01-27T08:26:12;1.50;99.90
13354;DHT22;6746;50.892;4.064;2024-01-27T08:28:40;1.50;99.90
13354;DHT22;6746;50.892;4.064;2024-01-27T08:31:09;1.60;99.90
13354;DHT22;6746;50.892;4.064;2024-01-27T08:33:46;1.60;99.90
13354;DHT22;6746;50.892;4.064;2024-01-27T08:36:15;1.70;99.90
13354;DHT22;6746;50.892;4.064;2024-01-27T08:38:51;1.70;99.90
13354;DHT22;6746;50.892;4.064;2024-01-27T08:41:19;1.80;99.90
13354;DHT22;6746;50.892;4.064;2024-01-27T08:43:51;1.90;99.90
13354;DHT22;6746;50.892;4.064;2024-01-27T08:46:20;2.00;99.90
13354;DHT22;6746;50.892;4.064;2024-01-27T08:48:48;2.10;99.90
13354;DHT22;6746;50.892;4.064;2024-01-27T08:51:17;2.20;99.90
13354;DHT22;6746;50.892;4.064;2024-01-27T08:53:56;2.20;99.90
13354;DHT22;6746;50.892;4.064;2024-01-27T08:56:38;2.30;99.90
13354;DHT22;6746;50.892;4.064;2024-01-27T08:59:21;2.40;99.90
13354;DHT22;6746;50.892;4.064;2024-01-27T09:01:59;2.50;99.90
13354;DHT22;6746;50.892;4.064;2024-01-27T09:04:33;2.60;99.90
13354;DHT22;6746;50.892;4.064;2024-01-27T09:07:01;2.60;99.90
13354;DHT22;6746;50.892;4.064;2024-01-27T09:09:33;2.70;99.90
13354;DHT22;6746;50.892;4.064;2024-01-27T09:12:04;2.80;99.90
13354;DHT22;6746;50.892;4.064;2024-01-27T09:14:35;2.80;99.90
13354;DHT22;6746;50.892;4.064;2024-01-27T09:17:03;2.90;99.90
13354;DHT22;6746;50.892;4.064;2024-01-27T09:19:32;3.00;99.90
13354;DHT22;6746;50.892;4.064;2024-01-27T09:22:01;3.10;99.90
13354;DHT22;6746;50.892;4.064;2024-01-27T09:24:40;3.20;99.90
13354;DHT22;6746;50.892;4.064;2024-01-27T09:27:08;3.30;99.90
13354;DHT22;6746;50.892;4.064;2024-01-27T09:29:39;3.40;99.90
13354;DHT22;6746;50.892;4.064;2024-01-27T09:32:08;3.50;99.90
13354;DHT22;6746;50.892;4.064;2024-01-27T09:34:47;3.60;99.90
13354;DHT22;6746;50.892;4.064;2024-01-27T09:37:20;3.70;99.90
13354;DHT22;6746;50.892;4.064;2024-01-27T09:39:49;3.70;99.90
13354;DHT22;6746;50.892;4.064;2024-01-27T09:42:18;3.80;99.90
13354;DHT22;6746;50.892;4.064;2024-01-27T09:44:48;3.90;99.90
13354;DHT22;6746;50.892;4.064;2024-01-27T09:47:18;4.00;99.90
13354;DHT22;6746;50.892;4.064;2024-01-27T09:49:47;4.10;99.90
13354;DHT22;6746;50.892;4.064;2024-01-27T09:52:20;4.20;99.90
13354;DHT22;6746;50.892;4.064;2024-01-27T09:54:49;4.30;99.90
13354;DHT22;6746;50.892;4.064;2024-01-27T09:57:18;4.40;99.90
13354;DHT22;6746;50.892;4.064;2024-01-27T09:59:49;4.50;99.90
13354;DHT22;6746;50.892;4.064;2024-01-27T10:02:18;4.60;99.90
13354;DHT22;6746;50.892;4.064;2024-01-27T10:04:47;4.80;99.90
13354;DHT22;6746;50.892;4.064;2024-01-27T10:07:21;5.00;99.90
13354;DHT22;6746;50.892;4.064;2024-01-27T10:09:50;5.10;99.90
13354;DHT22;6746;50.892;4.064;2024-01-27T10:12:26;5.30;99.90
13354;DHT22;6746;50.892;4.064;2024-01-27T10:14:55;5.40;99.90
13354;DHT22;6746;50.892;4.064;2024-01-27T10:17:26;5.50;99.90
13354;DHT22;6746;50.892;4.064;2024-01-27T10:20:01;5.50;99.90
13354;DHT22;6746;50.892;4.064;2024-01-27T10:22:37;5.50;99.90
13354;DHT22;6746;50.892;4.064;2024-01-27T10:25:05;5.60;99.90
13354;DHT22;6746;50.892;4.064;2024-01-27T10:27:37;5.70;99.90
13354;DHT22;6746;50.892;4.064;2024-01-27T10:30:06;5.70;99.90
13354;DHT22;6746;50.892;4.064;2024-01-27T10:32:42;5.80;99.90
13354;DHT22;6746;50.892;4.064;2024-01-27T10:35:13;6.00;99.90
13354;DHT22;6746;50.892;4.064;2024-01-27T10:37:52;6.20;99.90
13354;DHT22;6746;50.892;4.064;2024-01-27T10:40:21;6.30;99.90
13354;DHT22;6746;50.892;4.064;2024-01-27T10:43:04;6.40;99.90
13354;DHT22;6746;50.892;4.064;2024-01-27T10:48:06;6.40;99.90
13354;DHT22;6746;50.892;4.064;2024-01-27T10:50:37;6.30;99.90
13354;DHT22;6746;50.892;4.064;2024-01-27T10:53:17;6.30;99.90
13354;DHT22;6746;50.892;4.064;2024-01-27T10:55:53;6.40;99.90
13354;DHT22;6746;50.892;4.064;2024-01-27T10:58:30;6.40;99.90
13354;DHT22;6746;50.892;4.064;2024-01-27T11:00:59;6.40;99.90
13354;DHT22;6746;50.892;4.064;2024-01-27T11:03:27;6.50;99.90
13354;DHT22;6746;50.892;4.064;2024-01-27T11:05:56;6.50;99.90
13354;DHT22;6746;50.892;4.064;2024-01-27T11:08:25;6.60;99.90
13354;DHT22;6746;50.892;4.064;2024-01-27T11:10:54;6.70;99.90
13354;DHT22;6746;50.892;4.064;2024-01-27T11:13:23;6.70;99.90
13354;DHT22;6746;50.892;4.064;2024-01-27T11:15:52;6.70;99.90
13354;DHT22;6746;50.892;4.064;2024-01-27T11:18:31;6.80;99.90
13354;DHT22;6746;50.892;4.064;2024-01-27T11:20:59;6.80;99.90
13354;DHT22;6746;50.892;4.064;2024-01-27T11:23:33;6.80;99.90
13354;DHT22;6746;50.892;4.064;2024-01-27T11:26:08;6.90;99.90
13354;DHT22;6746;50.892;4.064;2024-01-27T11:28:41;6.90;99.90
13354;DHT22;6746;50.892;4.064;2024-01-27T11:31:10;7.00;99.90
13354;DHT22;6746;50.892;4.064;2024-01-27T11:33:50;7.10;99.90
13354;DHT22;6746;50.892;4.064;2024-01-27T11:36:22;7.20;99.90
13354;DHT22;6746;50.892;4.064;2024-01-27T11:38:51;7.30;99.90
13354;DHT22;6746;50.892;4.064;2024-01-27T11:41:23;7.30;99.90
13354;DHT22;6746;50.892;4.064;2024-01-27T11:43:55;7.30;99.90
13354;DHT22;6746;50.892;4.064;2024-01-27T11:46:23;7.40;99.90
13354;DHT22;6746;50.892;4.064;2024-01-27T11:48:52;7.50;99.90
13354;DHT22;6746;50.892;4.064;2024-01-27T11:51:30;7.70;99.90
13354;DHT22;6746;50.892;4.064;2024-01-27T11:54:08;7.90;99.90
13354;DHT22;6746;50.892;4.064;2024-01-27T11:56:46;8.00;99.90
13354;DHT22;6746;50.892;4.064;2024-01-27T11:59:25;8.10;99.90
13354;DHT22;6746;50.892;4.064;2024-01-27T12:02:03;8.20;99.90
13354;DHT22;6746;50.892;4.064;2024-01-27T12:04:32;8.30;99.90
13354;DHT22;6746;50.892;4.064;2024-01-27T12:07:00;8.50;99.90
13354;DHT22;6746;50.892;4.064;2024-01-27T12:09:37;8.60;99.90
13354;DHT22;6746;50.892;4.064;2024-01-27T12:12:06;8.70;99.90
13354;DHT22;6746;50.892;4.064;2024-01-27T12:14:40;8.70;99.90
13354;DHT22;6746;50.892;4.064;2024-01-27T12:17:09;8.70;99.90
13354;DHT22;6746;50.892;4.064;2024-01-27T12:19:49;8.70;99.90
13354;DHT22;6746;50.892;4.064;2024-01-27T12:22:23;8.70;99.90
13354;DHT22;6746;50.892;4.064;2024-01-27T12:25:07;8.70;99.90
13354;DHT22;6746;50.892;4.064;2024-01-27T12:27:28;8.80;99.90
13354;DHT22;6746;50.892;4.064;2024-01-27T12:29:56;8.80;99.90
13354;DHT22;6746;50.892;4.064;2024-01-27T12:32:25;8.90;99.90
13354;DHT22;6746;50.892;4.064;2024-01-27T12:34:57;9.10;99.90
13354;DHT22;6746;50.892;4.064;2024-01-27T12:37:25;9.10;99.90
13354;DHT22;6746;50.892;4.064;2024-01-27T12:39:54;9.10;99.90
13354;DHT22;6746;50.892;4.064;2024-01-27T12:42:22;9.10;99.90
13354;DHT22;6746;50.892;4.064;2024-01-27T12:45:11;9.10;99.90
13354;DHT22;6746;50.892;4.064;2024-01-27T12:47:49;9.20;99.90
13354;DHT22;6746;50.892;4.064;2024-01-27T12:50:18;9.30;99.90
13354;DHT22;6746;50.892;4.064;2024-01-27T12:52:46;9.20;99.90
13354;DHT22;6746;50.892;4.064;2024-01-27T12:55:15;9.20;99.90
13354;DHT22;6746;50.892;4.064;2024-01-27T12:57:44;9.20;99.90
13354;DHT22;6746;50.892;4.064;2024-01-27T13:00:16;9.20;99.90
13354;DHT22;6746;50.892;4.064;2024-01-27T13:02:45;9.30;99.90
13354;DHT22;6746;50.892;4.064;2024-01-27T13:05:23;9.40;99.90
13354;DHT22;6746;50.892;4.064;2024-01-27T13:07:52;9.30;99.90
13354;DHT22;6746;50.892;4.064;2024-01-27T13:10:26;9.20;99.90
13354;DHT22;6746;50.892;4.064;2024-01-27T13:12:55;9.10;99.90
13354;DHT22;6746;50.892;4.064;2024-01-27T13:15:33;9.10;99.90
13354;DHT22;6746;50.892;4.064;2024-01-27T13:18:10;9.10;99.90
13354;DHT22;6746;50.892;4.064;2024-01-27T13:20:39;9.10;99.90
13354;DHT22;6746;50.892;4.064;2024-01-27T13:23:13;9.00;99.90
13354;DHT22;6746;50.892;4.064;2024-01-27T13:25:42;8.90;99.90
13354;DHT22;6746;50.892;4.064;2024-01-27T13:28:11;8.90;99.90
13354;DHT22;6746;50.892;4.064;2024-01-27T13:30:39;8.90;99.90
13354;DHT22;6746;50.892;4.064;2024-01-27T13:33:11;8.90;99.90
13354;DHT22;6746;50.892;4.064;2024-01-27T13:35:40;8.80;99.90
13354;DHT22;6746;50.892;4.064;2024-01-27T13:38:09;8.90;99.90
13354;DHT22;6746;50.892;4.064;2024-01-27T13:40:37;8.90;99.90
13354;DHT22;6746;50.892;4.064;2024-01-27T13:43:06;9.00;99.90
13354;DHT22;6746;50.892;4.064;2024-01-27T13:45:35;9.00;99.90
13354;DHT22;6746;50.892;4.064;2024-01-27T13:48:04;9.10;99.90
13354;DHT22;6746;50.892;4.064;2024-01-27T13:50:33;9.10;99.90
13354;DHT22;6746;50.892;4.064;2024-01-27T13:53:01;9.10;99.90
13354;DHT22;6746;50.892;4.064;2024-01-27T13:55:30;9.00;99.90
13354;DHT22;6746;50.892;4.064;2024-01-27T13:58:02;9.10;99.90
13354;DHT22;6746;50.892;4.064;2024-01-27T14:00:31;9.10;99.90
13354;DHT22;6746;50.892;4.064;2024-01-27T14:03:09;9.10;99.90
13354;DHT22;6746;50.892;4.064;2024-01-27T14:05:38;9.10;99.90
13354;DHT22;6746;50.892;4.064;2024-01-27T14:08:07;9.10;99.90
13354;DHT22;6746;50.892;4.064;2024-01-27T14:10:36;9.10;99.90
13354;DHT22;6746;50.892;4.064;2024-01-27T14:13:04;9.00;99.90
13354;DHT22;6746;50.892;4.064;2024-01-27T14:15:36;8.90;99.90
13354;DHT22;6746;50.892;4.064;2024-01-27T14:18:04;8.90;99.90
13354;DHT22;6746;50.892;4.064;2024-01-27T14:20:43;8.80;99.90
13354;DHT22;6746;50.892;4.064;2024-01-27T14:23:12;8.80;99.90
13354;DHT22;6746;50.892;4.064;2024-01-27T14:26:00;8.70;99.90
13354;DHT22;6746;50.892;4.064;2024-01-27T14:28:38;8.60;99.90
13354;DHT22;6746;50.892;4.064;2024-01-27T14:31:17;8.50;99.90
13354;DHT22;6746;50.892;4.064;2024-01-27T14:33:55;8.50;99.90
13354;DHT22;6746;50.892;4.064;2024-01-27T14:36:33;8.40;99.90
13354;DHT22;6746;50.892;4.064;2024-01-27T14:39:11;8.40;99.90
13354;DHT22;6746;50.892;4.064;2024-01-27T14:41:44;8.30;99.90
13354;DHT22;6746;50.892;4.064;2024-01-27T14:44:13;8.20;99.90
13354;DHT22;6746;50.892;4.064;2024-01-27T14:46:44;8.20;99.90
13354;DHT22;6746;50.892;4.064;2024-01-27T14:49:13;8.20;99.90
13354;DHT22;6746;50.892;4.064;2024-01-27T14:51:50;8.10;99.90
13354;DHT22;6746;50.892;4.064;2024-01-27T14:54:19;8.10;99.90
13354;DHT22;6746;50.892;4.064;2024-01-27T14:56:52;8.10;99.90
13354;DHT22;6746;50.892;4.064;2024-01-27T14:59:21;8.00;99.90
13354;DHT22;6746;50.892;4.064;2024-01-27T15:01:59;7.90;99.90
13354;DHT22;6746;50.892;4.064;2024-01-27T15:04:37;7.90;99.90
13354;DHT22;6746;50.892;4.064;2024-01-27T15:07:15;6.60;99.90
13354;DHT22;6746;50.892;4.064;2024-01-27T15:10:03;7.80;99.90
13354;DHT22;6746;50.892;4.064;2024-01-27T15:12:42;7.80;99.90
13354;DHT22;6746;50.892;4.064;2024-01-27T15:15:20;7.80;99.90
13354;DHT22;6746;50.892;4.064;2024-01-27T15:17:58;7.80;99.90
13354;DHT22;6746;50.892;4.064;2024-01-27T15:20:36;7.70;99.90
13354;DHT22;6746;50.892;4.064;2024-01-27T15:23:14;7.70;99.90
13354;DHT22;6746;50.892;4.064;2024-01-27T15:25:52;7.60;99.90
13354;DHT22;6746;50.892;4.064;2024-01-27T15:28:31;7.60;99.90
13354;DHT22;6746;50.892;4.064;2024-01-27T15:31:17;7.60;99.90
13354;DHT22;6746;50.892;4.064;2024-01-27T15:33:55;7.50;99.90
13354;DHT22;6746;50.892;4.064;2024-01-27T15:36:33;7.50;99.90
13354;DHT22;6746;50.892;4.064;2024-01-27T15:39:11;7.40;99.90
13354;DHT22;6746;50.892;4.064;2024-01-27T15:41:47;7.30;99.90
13354;DHT22;6746;50.892;4.064;2024-01-27T15:44:16;7.30;99.90
13354;DHT22;6746;50.892;4.064;2024-01-27T15:46:45;7.30;99.90
13354;DHT22;6746;50.892;4.064;2024-01-27T15:49:13;7.20;99.90
13354;DHT22;6746;50.892;4.064;2024-01-27T15:51:42;7.10;99.90
13354;DHT22;6746;50.892;4.064;2024-01-27T15:54:13;7.10;99.90
13354;DHT22;6746;50.892;4.064;2024-01-27T15:56:53;7.10;99.90
13354;DHT22;6746;50.892;4.064;2024-01-27T15:59:24;7.00;99.90
13354;DHT22;6746;50.892;4.064;2024-01-27T16:02:03;6.90;99.90
13354;DHT22;6746;50.892;4.064;2024-01-27T16:04:31;6.90;99.90
13354;DHT22;6746;50.892;4.064;2024-01-27T16:07:02;6.80;99.90
13354;DHT22;6746;50.892;4.064;2024-01-27T16:09:31;6.80;99.90
13354;DHT22;6746;50.892;4.064;2024-01-27T16:12:00;6.90;99.90
13354;DHT22;6746;50.892;4.064;2024-01-27T16:14:31;6.80;99.90
13354;DHT22;6746;50.892;4.064;2024-01-27T16:17:00;6.90;99.90
13354;DHT22;6746;50.892;4.064;2024-01-27T16:19:31;6.90;99.90
13354;DHT22;6746;50.892;4.064;2024-01-27T16:21:59;6.80;99.90
13354;DHT22;6746;50.892;4.064;2024-01-27T16:24:31;6.80;99.90
13354;DHT22;6746;50.892;4.064;2024-01-27T16:26:59;6.80;99.90
13354;DHT22;6746;50.892;4.064;2024-01-27T16:29:38;6.70;99.90
13354;DHT22;6746;50.892;4.064;2024-01-27T16:32:17;6.70;99.90
13354;DHT22;6746;50.892;4.064;2024-01-27T16:34:47;6.60;99.90
13354;DHT22;6746;50.892;4.064;2024-01-27T16:37:26;6.60;99.90
13354;DHT22;6746;50.892;4.064;2024-01-27T16:39:54;6.60;99.90
13354;DHT22;6746;50.892;4.064;2024-01-27T16:42:23;6.50;99.90
13354;DHT22;6746;50.892;4.064;2024-01-27T16:44:54;6.50;99.90
13354;DHT22;6746;50.892;4.064;2024-01-27T16:47:33;6.50;99.90
13354;DHT22;6746;50.892;4.064;2024-01-27T16:50:16;6.50;99.90
13354;DHT22;6746;50.892;4.064;2024-01-27T16:52:57;6.50;99.90
13354;DHT22;6746;50.892;4.064;2024-01-27T16:55:40;6.40;99.90
13354;DHT22;6746;50.892;4.064;2024-01-27T16:58:19;6.30;99.90
13354;DHT22;6746;50.892;4.064;2024-01-27T17:01:07;6.20;99.90
13354;DHT22;6746;50.892;4.064;2024-01-27T17:03:55;6.20;99.90
13354;DHT22;6746;50.892;4.064;2024-01-27T17:06:43;6.10;99.90